• Join FlightAware (Why Join?)
  • Login
  • US Flag 
07:40PM EST


 

Airport Tracker/Info


-or-


 

Live Flight TrackerFlight Track Log ✈ JBU917 ✈ 12-May-2013 ✈ KJFK - KORD

Flight Track Log - Related Links

Times and Time Zones

All times are in EDT time to prevent confusion due to time zone crossing. See the JBU917 flight status page for this flight to view local times or setup timezone preferences in your user account.

Time Position Orientation Groundspeed Altitude Reporting Facility
EDT Latitude Longitude Course Direction KTS MPH feet Rate Location/Type
10:27PM 40.6167 -73.8667 304° West 196 226 3,200  Level New York TRACON
10:28PM 40.5833 -73.8167 131° Southeast 257 296 6,500 2,820 Climbing New York TRACON
10:29PM 40.8541 -74.1914 304° West  Level FlightAware Approximate
10:29PM 40.6167 -73.7500 57° Northeast 309 356 9,000  Level New York TRACON
10:30PM 40.9120 -74.2997 306° West  Level FlightAware Approximate
10:30PM 40.6833 -73.6500 49° Northeast 302 348 10,800  Level New York TRACON
10:31PM 40.9721 -74.4055 323° Northwest  Level FlightAware Approximate
10:31PM 40.7500 -73.5667 43° Northeast 373 429 12,500  Level New York TRACON
10:32PM 41.0361 -74.5056 304° West  Level FlightAware Approximate
10:32PM 40.8500 -73.5667 360° North 369 425 14,800  Level New York TRACON
10:33PM 40.9522 -73.7108 313° West 352 405 17,100 840 Climbing New York Center
10:34PM 40.9783 -73.8331 286° West 315 362 17,100  Level New York Center
10:35PM 40.9964 -73.9356 283° West 315 362 17,100  Level New York Center
10:36PM 41.0200 -74.0547 285° West 315 362 17,100  Level New York Center
10:37PM 41.0381 -74.1575 283° West 320 368 17,100  Level New York Center
10:38PM 41.0597 -74.2714 284° West 320 368 17,100 480 Level New York Center
10:39PM 41.0831 -74.3964 284° West 320 368 18,100 1,380 Climbing New York Center
10:40PM 41.1008 -74.4964 283° West 320 368 20,000 1,860 Climbing New York Center
10:41PM 41.1219 -74.6161 283° West 320 368 21,900 1,860 Climbing New York Center
10:42PM 41.1533 -74.7364 289° West 333 383 23,700 1,500 Climbing New York Center
10:43PM 41.2036 -74.8497 301° West 345 397 25,000 1,140 Climbing New York Center
10:44PM 41.2556 -74.9714 300° West 366 421 26,100 1,200 Climbing New York Center
10:45PM 41.3094 -75.0964 300° West 380 437 27,400 1,260 Climbing New York Center
10:46PM 41.3631 -75.2214 300° West 385 443 28,600 1,080 Climbing New York Center
10:47PM 41.4186 -75.3494 300° West 390 449 29,600 1,140 Climbing New York Center
10:48PM 41.4719 -75.4750 300° West 390 449 30,900 1,080 Climbing New York Center
10:49PM 41.5125 -75.6081 292° West 390 449 31,800 960 Climbing New York Center
10:50PM 41.5506 -75.7439 291° West 390 449 32,900 960 Climbing New York Center
10:51PM 41.5942 -75.8942 291° West 390 449 33,800 360 Climbing New York Center
10:53PM 41.6756 -76.1875 290° West 425 489 34,000 60 Climbing Cleveland Center
10:54PM 41.7144 -76.3322 290° West 418 481 34,000  Level Cleveland Center
10:55PM 41.7572 -76.4742 292° West 418 481 34,000  Level Cleveland Center
10:56PM 41.7978 -76.6192 291° West 412 474 34,000  Level Cleveland Center
10:57PM 41.8361 -76.7647 290° West 417 480 34,000  Level Cleveland Center
10:58PM 41.8742 -76.9075 290° West 417 480 34,000  Level Cleveland Center
10:59PM 41.9161 -77.0503 292° West 417 480 34,000  Level Cleveland Center
11:00PM 41.9539 -77.1933 290° West 417 480 34,000  Level Cleveland Center
11:01PM 41.9933 -77.3394 290° West 417 480 34,000  Level Cleveland Center
11:02PM 42.0331 -77.4856 290° West 417 480 34,000  Level Cleveland Center
11:03PM 42.0722 -77.6292 290° West 417 480 34,000  Level Cleveland Center
11:04PM 42.1069 -77.7731 288° West 417 480 34,000  Level Cleveland Center
11:05PM 42.1481 -77.9197 291° West 417 480 34,000  Level Cleveland Center
11:06PM 42.1803 -78.0500 288° West 417 480 34,000  Level Cleveland Center
11:07PM 42.2189 -78.1972 290° West 417 480 34,000  Level Cleveland Center
11:08PM 42.2572 -78.3472 289° West 417 480 34,000  Level Cleveland Center
11:09PM 42.2953 -78.4947 289° West 417 480 34,000  Level Cleveland Center
11:10PM 42.3333 -78.6422 289° West 417 480 34,000  Level Cleveland Center
11:11PM 42.3714 -78.7900 289° West 417 480 34,000  Level Cleveland Center
11:12PM 42.4092 -78.9522 288° West 417 480 34,000  Level Cleveland Center
11:13PM 42.4486 -79.1003 290° West 422 486 34,000  Level Cleveland Center
11:14PM 42.4817 -79.2347 288° West 422 486 34,000  Level Cleveland Center
11:15PM 42.4978 -79.3836 278° West 415 478 34,000  Level Cleveland Center
11:16PM 42.5056 -79.5383 274° West 409 471 34,000  Level Cleveland Center
11:17PM 42.5131 -79.6931 274° West 409 471 34,000  Level Cleveland Center
11:18PM 42.5225 -79.8481 275° West 409 471 34,000  Level Cleveland Center
11:19PM 42.5214 -80.0000 269° West 404 465 34,000  Level Cleveland Center
11:20PM 42.5303 -80.1550 275° West 404 465 34,000  Level Cleveland Center
11:21PM 42.5350 -80.3069 272° West 404 465 34,000  Level Cleveland Center
11:22PM 42.5436 -80.4619 274° West 404 465 34,000  Level Cleveland Center
11:23PM 42.5497 -80.6169 273° West 410 472 34,000  Level Cleveland Center
11:24PM 42.5558 -80.7664 273° West 409 471 34,000  Level Cleveland Center
11:25PM 42.5619 -80.9186 273° West 404 465 34,000  Level Cleveland Center
11:26PM 42.5675 -81.0878 273° West 404 465 34,000  Level Cleveland Center
11:27PM 42.5792 -81.2431 276° West 404 465 34,000  Level Cleveland Center
11:28PM 42.5950 -81.3956 278° West 404 465 34,000  Level Cleveland Center
11:29PM 42.6103 -81.5453 278° West 409 471 34,000  Level Cleveland Center
11:30PM 42.6258 -81.6950 278° West 409 471 34,000  Level Cleveland Center
11:31PM 42.6408 -81.8506 278° West 409 471 34,000  Level Cleveland Center
11:32PM 42.6556 -82.0061 277° West 409 471 34,000  Level Cleveland Center
11:33PM 42.6725 -82.1589 279° West 414 476 34,000  Level Cleveland Center
11:34PM 42.6869 -82.3119 277° West 414 476 34,000  Level Cleveland Center
11:35PM 42.7031 -82.4706 278° West 414 476 34,000  Level Cleveland Center
11:36PM 42.7153 -82.6233 276° West 414 476 34,000  Level Cleveland Center
11:37PM 42.7311 -82.7767 278° West 414 476 34,000  Level Cleveland Center
11:38PM 42.7447 -82.9269 277° West 409 471 34,000  Level Cleveland Center
11:39PM 42.7583 -83.0803 277° West 409 471 34,000  Level Cleveland Center
11:40PM 42.7719 -83.2192 278° West 409 471 34,000  Level Cleveland Center
11:41PM 42.7828 -83.3725 276° West 409 471 34,000  Level Cleveland Center
11:42PM 42.7978 -83.5289 277° West 414 476 34,000  Level Cleveland Center
11:43PM 42.8103 -83.6853 276° West 414 476 34,000  Level Cleveland Center
11:44PM 42.8228 -83.8386 276° West 414 476 34,000  Level Cleveland Center
11:45PM 42.8369 -83.9981 277° West 414 476 34,000 -180 Level Cleveland Center
11:46PM 42.8489 -84.1517 276° West 414 476 33,700 -660 Descending Cleveland Center
11:47PM 42.8606 -84.3081 276° West 414 476 32,700 -900 Descending Cleveland Center
11:48PM 42.8758 -84.4764 277° West 414 476 32,000 -540 Descending Cleveland Center
11:49PM 42.8808 -84.5322 277° West 413 475 32,000  Level Chicago Center
11:50PM 42.8731 -84.6933 266° West 428 493 32,000  Level Chicago Center
11:51PM 42.8564 -84.8511 262° West 423 487 32,000  Level Chicago Center
11:52PM 42.8400 -85.0100 262° West 424 488 32,000  Level Chicago Center
11:53PM 42.8225 -85.1703 262° West 428 493 32,000  Level Chicago Center
11:54PM 42.8047 -85.3297 261° West 427 491 32,000  Level Chicago Center
11:55PM 42.7872 -85.4906 262° West 427 491 32,000  Level Chicago Center
11:56PM 42.7589 -85.6511 257° West 433 498 32,000 -60 Level Chicago Center
11:57PM 42.7306 -85.8128 257° West 435 501 31,900 -1,200 Descending Chicago Center
11:58PM 42.7006 -85.9728 256° West 434 499 29,700 -2,280 Descending Chicago Center
11:59PM 42.6725 -86.1303 256° West 429 494 27,400 -2,280 Descending Chicago Center
12:00AM 42.6444 -86.2800 256° West 416 479 25,200 -2,160 Descending Chicago Center
12:01AM 42.6169 -86.4233 255° West 395 455 23,100 -2,040 Descending Chicago Center
12:02AM 42.5906 -86.5650 256° West 390 449 21,100 -2,100 Descending Chicago Center
12:03AM 42.5622 -86.7197 256° West 375 432 18,900 -1,980 Descending Chicago Center
12:04AM 42.5281 -86.8458 250° West 361 415 17,200 -1,740 Descending Chicago Center
12:05AM 42.4992 -86.9561 250° West 358 412 15,400 -1,860 Descending Chicago Center
12:06AM 42.4633 -87.0789 248° West 353 406 13,500 -1,860 Descending Chicago Center
12:07AM 42.4311 -87.2000 250° West 345 397 11,700 -1,740 Descending Chicago Center
12:08AM 42.3989 -87.3172 250° West 335 386 10,100 -900 Descending Chicago Center
12:09AM 42.3672 -87.4331 250° West 302 348 10,000 -60 Descending Chicago Center
12:10AM 42.3350 -87.5378 247° West 304 350 10,000  Level Chicago Center
12:11AM 42.2661 -87.6103 218° Southwest 314 361 10,100  Climbing Chicago Center
12:12AM 42.1967 -87.6836 218° Southwest 316 364 10,000 -120 Descending Chicago Center
12:13AM 42.1308 -87.7542 218° Southwest 307 353 9,900 -600 Descending Chicago Center
12:14AM 42.1000 -87.8000 228° Southwest 276 318 9,100 -1,380 Descending Chicago TRACON
12:15AM 42.1000 -87.9000 270° West 263 303 7,800 -960 Descending Chicago TRACON
12:16AM 42.1000 -87.9833 270° West 239 275 7,200 -600 Descending Chicago TRACON
12:17AM 42.0833 -88.0667 255° West 213 245 6,600 -1,020 Descending Chicago TRACON
12:18AM 42.0833 -88.1500 270° West 212 244 5,200 -1,320 Descending Chicago TRACON
12:18AM 42.0706 -88.1789 239° Southwest 221 254 4,700 -720 Descending Chicago Center
12:19AM 42.0103 -88.1722 175° South 222 255 4,200 -540 Descending Chicago Center
12:20AM 41.9689 -88.1083 131° Southeast 226 260 3,700 -840 Descending Chicago Center
12:21AM 41.9667 -88.0667 94° East 199 229 3,000 -1,200 Descending Chicago TRACON
12:22AM 41.9667 -88.0000 90° East 160 184 1,900 -1,020 Descending Chicago TRACON
12:23AM 41.9667 -87.9500 90° East 153 176 1,000 -900 Descending Chicago TRACON